<?xml version="1.0" encoding="UTF-8" standalone="no" ?>
<gpx xmlns="http://www.topografix.com/GPX/1/1" xmlns:xsi="http://www.w3.org/2001/XMLSchema-instance" xsi:schemaLocation="http://www.topografix.com/GPX/1/1 http://www.topografix.com/GPX/1/1/gpx.xsd" version="1.1" creator="VisuGPX - https://www.visugpx.com">
  <metadata>
    <name>Neuvicoise 2024</name>
    <desc><![CDATA[Parcours créé sur Trace de Trail]]></desc>
  </metadata>
  <trk>
    <name><![CDATA[Neuvicoise 2024_7]]></name>
    <extensions>
      <line xmlns="http://www.topografix.com/GPX/gpx_style/0/2">
        <color>000088</color>
        <width>4</width>
      </line>
    </extensions>
    <trkseg>
      <trkpt lat="45.39466" lon="2.28435">
        <ele>599</ele>
        <time>2024-09-13T04:57:44+00:00</time>
      </trkpt>
      <trkpt lat="45.39468" lon="2.28391">
        <ele>602</ele>
        <time>2024-09-13T04:57:47+00:00</time>
      </trkpt>
      <trkpt lat="45.39472" lon="2.28308">
        <ele>605</ele>
        <time>2024-09-13T04:57:50+00:00</time>
      </trkpt>
      <trkpt lat="45.39439" lon="2.28253">
        <ele>618</ele>
        <time>2024-09-13T04:57:53+00:00</time>
      </trkpt>
      <trkpt lat="45.39408" lon="2.28183">
        <ele>619</ele>
        <time>2024-09-13T04:57:56+00:00</time>
      </trkpt>
      <trkpt lat="45.39389" lon="2.2816">
        <ele>619</ele>
        <time>2024-09-13T04:57:59+00:00</time>
      </trkpt>
      <trkpt lat="45.39312" lon="2.28096">
        <ele>619</ele>
        <time>2024-09-13T04:58:02+00:00</time>
      </trkpt>
      <trkpt lat="45.39254" lon="2.28069">
        <ele>625.9</ele>
        <time>2024-09-13T04:58:05+00:00</time>
      </trkpt>
      <trkpt lat="45.39091" lon="2.28037">
        <ele>626.2</ele>
        <time>2024-09-13T04:58:11+00:00</time>
      </trkpt>
      <trkpt lat="45.38893" lon="2.28003">
        <ele>626.4</ele>
        <time>2024-09-13T04:58:14+00:00</time>
      </trkpt>
      <trkpt lat="45.3882" lon="2.27859">
        <ele>633.1</ele>
        <time>2024-09-13T04:58:17+00:00</time>
      </trkpt>
      <trkpt lat="45.38858" lon="2.27694">
        <ele>631.1</ele>
      </trkpt>
      <trkpt lat="45.38918" lon="2.27614">
        <ele>632.6</ele>
        <time>2024-09-13T04:58:20+00:00</time>
      </trkpt>
      <trkpt lat="45.39058" lon="2.27475">
        <ele>636.6</ele>
        <time>2024-09-13T04:58:23+00:00</time>
      </trkpt>
      <trkpt lat="45.39104" lon="2.27428">
        <ele>641.2</ele>
        <time>2024-09-13T04:58:26+00:00</time>
      </trkpt>
      <trkpt lat="45.39107" lon="2.27381">
        <ele>640.3</ele>
        <time>2024-09-13T04:58:29+00:00</time>
      </trkpt>
      <trkpt lat="45.39267" lon="2.27432">
        <ele>625</ele>
        <time>2024-09-13T04:58:41+00:00</time>
      </trkpt>
      <trkpt lat="45.39384" lon="2.27443">
        <ele>628.4</ele>
        <time>2024-09-13T04:58:44+00:00</time>
      </trkpt>
      <trkpt lat="45.39483" lon="2.27438">
        <ele>618.9</ele>
        <time>2024-09-13T04:58:47+00:00</time>
      </trkpt>
      <trkpt lat="45.39453" lon="2.27366">
        <ele>620.3</ele>
        <time>2024-09-13T04:58:50+00:00</time>
      </trkpt>
      <trkpt lat="45.39403" lon="2.2726">
        <ele>622</ele>
        <time>2024-09-13T04:59:02+00:00</time>
      </trkpt>
      <trkpt lat="45.39418" lon="2.27167">
        <ele>622</ele>
        <time>2024-09-13T04:59:05+00:00</time>
      </trkpt>
      <trkpt lat="45.39438" lon="2.27135">
        <ele>622</ele>
        <time>2024-09-13T04:59:08+00:00</time>
      </trkpt>
      <trkpt lat="45.39455" lon="2.27123">
        <ele>628</ele>
        <time>2024-09-13T04:59:11+00:00</time>
      </trkpt>
      <trkpt lat="45.39476" lon="2.27122">
        <ele>630</ele>
        <time>2024-09-13T04:59:14+00:00</time>
      </trkpt>
      <trkpt lat="45.39493" lon="2.27107">
        <ele>635</ele>
        <time>2024-09-13T04:59:17+00:00</time>
      </trkpt>
      <trkpt lat="45.3952" lon="2.27068">
        <ele>644</ele>
        <time>2024-09-13T04:59:20+00:00</time>
      </trkpt>
      <trkpt lat="45.39519" lon="2.27024">
        <ele>645</ele>
        <time>2024-09-13T04:59:23+00:00</time>
      </trkpt>
      <trkpt lat="45.39521" lon="2.26997">
        <ele>643</ele>
        <time>2024-09-13T04:59:26+00:00</time>
      </trkpt>
      <trkpt lat="45.39531" lon="2.26969">
        <ele>642</ele>
        <time>2024-09-13T04:59:29+00:00</time>
      </trkpt>
      <trkpt lat="45.39555" lon="2.26941">
        <ele>641</ele>
        <time>2024-09-13T04:59:32+00:00</time>
      </trkpt>
      <trkpt lat="45.39599" lon="2.26888">
        <ele>640</ele>
        <time>2024-09-13T04:59:35+00:00</time>
      </trkpt>
      <trkpt lat="45.39615" lon="2.26858">
        <ele>639</ele>
        <time>2024-09-13T04:59:38+00:00</time>
      </trkpt>
      <trkpt lat="45.39635" lon="2.26821">
        <ele>639</ele>
        <time>2024-09-13T04:59:41+00:00</time>
      </trkpt>
      <trkpt lat="45.39646" lon="2.26785">
        <ele>642</ele>
        <time>2024-09-13T04:59:44+00:00</time>
      </trkpt>
      <trkpt lat="45.39662" lon="2.26728">
        <ele>643</ele>
        <time>2024-09-13T04:59:47+00:00</time>
      </trkpt>
      <trkpt lat="45.39624" lon="2.26708">
        <ele>647</ele>
        <time>2024-09-13T04:59:50+00:00</time>
      </trkpt>
      <trkpt lat="45.39638" lon="2.26673">
        <ele>648</ele>
        <time>2024-09-13T04:59:53+00:00</time>
      </trkpt>
      <trkpt lat="45.39658" lon="2.26622">
        <ele>649</ele>
        <time>2024-09-13T04:59:56+00:00</time>
      </trkpt>
      <trkpt lat="45.39674" lon="2.26585">
        <ele>655</ele>
        <time>2024-09-13T04:59:59+00:00</time>
      </trkpt>
      <trkpt lat="45.39702" lon="2.26519">
        <ele>662</ele>
        <time>2024-09-13T05:00:02+00:00</time>
      </trkpt>
      <trkpt lat="45.39712" lon="2.26486">
        <ele>669</ele>
        <time>2024-09-13T05:00:05+00:00</time>
      </trkpt>
      <trkpt lat="45.39719" lon="2.26454">
        <ele>669</ele>
        <time>2024-09-13T05:00:08+00:00</time>
      </trkpt>
      <trkpt lat="45.39716" lon="2.26435">
        <ele>666</ele>
        <time>2024-09-13T05:00:11+00:00</time>
      </trkpt>
      <trkpt lat="45.39677" lon="2.26415">
        <ele>663</ele>
        <time>2024-09-13T05:00:14+00:00</time>
      </trkpt>
      <trkpt lat="45.39634" lon="2.26397">
        <ele>663</ele>
        <time>2024-09-13T05:00:17+00:00</time>
      </trkpt>
      <trkpt lat="45.3961" lon="2.26393">
        <ele>663</ele>
        <time>2024-09-13T05:00:20+00:00</time>
      </trkpt>
      <trkpt lat="45.39582" lon="2.26379">
        <ele>665</ele>
        <time>2024-09-13T05:00:23+00:00</time>
      </trkpt>
      <trkpt lat="45.39537" lon="2.26358">
        <ele>670</ele>
        <time>2024-09-13T05:00:26+00:00</time>
      </trkpt>
      <trkpt lat="45.39519" lon="2.26343">
        <ele>671</ele>
        <time>2024-09-13T05:00:29+00:00</time>
      </trkpt>
      <trkpt lat="45.39483" lon="2.26303">
        <ele>673</ele>
        <time>2024-09-13T05:00:32+00:00</time>
      </trkpt>
      <trkpt lat="45.39461" lon="2.26266">
        <ele>678</ele>
        <time>2024-09-13T05:00:35+00:00</time>
      </trkpt>
      <trkpt lat="45.39442" lon="2.26236">
        <ele>681</ele>
        <time>2024-09-13T05:00:38+00:00</time>
      </trkpt>
      <trkpt lat="45.39431" lon="2.26212">
        <ele>682</ele>
        <time>2024-09-13T05:00:41+00:00</time>
      </trkpt>
      <trkpt lat="45.39402" lon="2.26163">
        <ele>684</ele>
        <time>2024-09-13T05:00:44+00:00</time>
      </trkpt>
      <trkpt lat="45.39384" lon="2.26126">
        <ele>684</ele>
        <time>2024-09-13T05:00:47+00:00</time>
      </trkpt>
      <trkpt lat="45.39352" lon="2.26056">
        <ele>686</ele>
        <time>2024-09-13T05:00:50+00:00</time>
      </trkpt>
      <trkpt lat="45.39331" lon="2.26018">
        <ele>686</ele>
        <time>2024-09-13T05:00:53+00:00</time>
      </trkpt>
      <trkpt lat="45.39317" lon="2.25997">
        <ele>684</ele>
        <time>2024-09-13T05:00:56+00:00</time>
      </trkpt>
      <trkpt lat="45.39293" lon="2.2597">
        <ele>683</ele>
        <time>2024-09-13T05:00:59+00:00</time>
      </trkpt>
      <trkpt lat="45.39246" lon="2.25917">
        <ele>676</ele>
        <time>2024-09-13T05:01:02+00:00</time>
      </trkpt>
      <trkpt lat="45.39226" lon="2.25885">
        <ele>675</ele>
        <time>2024-09-13T05:01:05+00:00</time>
      </trkpt>
      <trkpt lat="45.39207" lon="2.25847">
        <ele>672</ele>
        <time>2024-09-13T05:01:08+00:00</time>
      </trkpt>
      <trkpt lat="45.39193" lon="2.25807">
        <ele>671</ele>
        <time>2024-09-13T05:01:11+00:00</time>
      </trkpt>
      <trkpt lat="45.39178" lon="2.25777">
        <ele>671</ele>
        <time>2024-09-13T05:01:14+00:00</time>
      </trkpt>
      <trkpt lat="45.39162" lon="2.25742">
        <ele>668</ele>
        <time>2024-09-13T05:01:17+00:00</time>
      </trkpt>
      <trkpt lat="45.39155" lon="2.25701">
        <ele>668</ele>
        <time>2024-09-13T05:01:20+00:00</time>
      </trkpt>
      <trkpt lat="45.39142" lon="2.25671">
        <ele>668</ele>
        <time>2024-09-13T05:01:23+00:00</time>
      </trkpt>
      <trkpt lat="45.39125" lon="2.2564">
        <ele>662</ele>
        <time>2024-09-13T05:01:26+00:00</time>
      </trkpt>
      <trkpt lat="45.39097" lon="2.25623">
        <ele>654</ele>
        <time>2024-09-13T05:01:29+00:00</time>
      </trkpt>
      <trkpt lat="45.39082" lon="2.25603">
        <ele>654</ele>
        <time>2024-09-13T05:01:32+00:00</time>
      </trkpt>
      <trkpt lat="45.39098" lon="2.25555">
        <ele>650</ele>
        <time>2024-09-13T05:01:35+00:00</time>
      </trkpt>
      <trkpt lat="45.39114" lon="2.25531">
        <ele>647</ele>
        <time>2024-09-13T05:01:38+00:00</time>
      </trkpt>
      <trkpt lat="45.39148" lon="2.25512">
        <ele>647</ele>
        <time>2024-09-13T05:01:41+00:00</time>
      </trkpt>
      <trkpt lat="45.39168" lon="2.25499">
        <ele>646</ele>
        <time>2024-09-13T05:01:44+00:00</time>
      </trkpt>
      <trkpt lat="45.39182" lon="2.2548">
        <ele>647</ele>
        <time>2024-09-13T05:01:47+00:00</time>
      </trkpt>
      <trkpt lat="45.39222" lon="2.25398">
        <ele>648</ele>
        <time>2024-09-13T05:01:50+00:00</time>
      </trkpt>
      <trkpt lat="45.39205" lon="2.25381">
        <ele>648</ele>
        <time>2024-09-13T05:01:53+00:00</time>
      </trkpt>
      <trkpt lat="45.3918" lon="2.25352">
        <ele>647</ele>
        <time>2024-09-13T05:01:56+00:00</time>
      </trkpt>
      <trkpt lat="45.39147" lon="2.2531">
        <ele>644</ele>
        <time>2024-09-13T05:01:59+00:00</time>
      </trkpt>
      <trkpt lat="45.39125" lon="2.25299">
        <ele>642</ele>
        <time>2024-09-13T05:02:02+00:00</time>
      </trkpt>
      <trkpt lat="45.39102" lon="2.25288">
        <ele>642</ele>
        <time>2024-09-13T05:02:05+00:00</time>
      </trkpt>
      <trkpt lat="45.39059" lon="2.25275">
        <ele>646</ele>
        <time>2024-09-13T05:02:08+00:00</time>
      </trkpt>
      <trkpt lat="45.39039" lon="2.25263">
        <ele>646</ele>
        <time>2024-09-13T05:02:11+00:00</time>
      </trkpt>
      <trkpt lat="45.39022" lon="2.25229">
        <ele>646</ele>
        <time>2024-09-13T05:02:14+00:00</time>
      </trkpt>
      <trkpt lat="45.39005" lon="2.25212">
        <ele>646</ele>
        <time>2024-09-13T05:02:17+00:00</time>
      </trkpt>
      <trkpt lat="45.38984" lon="2.25199">
        <ele>645</ele>
        <time>2024-09-13T05:02:20+00:00</time>
      </trkpt>
      <trkpt lat="45.38958" lon="2.25196">
        <ele>645</ele>
        <time>2024-09-13T05:02:23+00:00</time>
      </trkpt>
      <trkpt lat="45.38932" lon="2.25214">
        <ele>642</ele>
        <time>2024-09-13T05:02:26+00:00</time>
      </trkpt>
      <trkpt lat="45.38907" lon="2.2524">
        <ele>640</ele>
        <time>2024-09-13T05:02:29+00:00</time>
      </trkpt>
      <trkpt lat="45.38887" lon="2.25265">
        <ele>640</ele>
        <time>2024-09-13T05:02:32+00:00</time>
      </trkpt>
      <trkpt lat="45.38863" lon="2.25288">
        <ele>638</ele>
        <time>2024-09-13T05:02:35+00:00</time>
      </trkpt>
      <trkpt lat="45.38827" lon="2.25322">
        <ele>637</ele>
        <time>2024-09-13T05:02:38+00:00</time>
      </trkpt>
      <trkpt lat="45.38829" lon="2.25284">
        <ele>637</ele>
        <time>2024-09-13T05:02:41+00:00</time>
      </trkpt>
      <trkpt lat="45.38831" lon="2.25236">
        <ele>641</ele>
        <time>2024-09-13T05:02:44+00:00</time>
      </trkpt>
      <trkpt lat="45.3883" lon="2.25195">
        <ele>641</ele>
        <time>2024-09-13T05:02:47+00:00</time>
      </trkpt>
      <trkpt lat="45.38828" lon="2.25131">
        <ele>641</ele>
        <time>2024-09-13T05:02:50+00:00</time>
      </trkpt>
      <trkpt lat="45.38826" lon="2.25101">
        <ele>641</ele>
        <time>2024-09-13T05:02:53+00:00</time>
      </trkpt>
      <trkpt lat="45.3882" lon="2.25069">
        <ele>639</ele>
        <time>2024-09-13T05:02:56+00:00</time>
      </trkpt>
      <trkpt lat="45.38811" lon="2.2502">
        <ele>638</ele>
        <time>2024-09-13T05:02:59+00:00</time>
      </trkpt>
      <trkpt lat="45.388" lon="2.24958">
        <ele>637</ele>
        <time>2024-09-13T05:03:02+00:00</time>
      </trkpt>
      <trkpt lat="45.38793" lon="2.24926">
        <ele>637</ele>
        <time>2024-09-13T05:03:05+00:00</time>
      </trkpt>
      <trkpt lat="45.38753" lon="2.24839">
        <ele>634</ele>
        <time>2024-09-13T05:03:08+00:00</time>
      </trkpt>
      <trkpt lat="45.38687" lon="2.24641">
        <ele>634</ele>
        <time>2024-09-13T05:03:11+00:00</time>
      </trkpt>
      <trkpt lat="45.38682" lon="2.24586">
        <ele>632</ele>
        <time>2024-09-13T05:03:14+00:00</time>
      </trkpt>
      <trkpt lat="45.38666" lon="2.24497">
        <ele>632</ele>
        <time>2024-09-13T05:03:17+00:00</time>
      </trkpt>
      <trkpt lat="45.38644" lon="2.2452">
        <ele>628</ele>
        <time>2024-09-13T05:03:20+00:00</time>
      </trkpt>
      <trkpt lat="45.38627" lon="2.24548">
        <ele>626</ele>
        <time>2024-09-13T05:03:23+00:00</time>
      </trkpt>
      <trkpt lat="45.38609" lon="2.24568">
        <ele>625</ele>
        <time>2024-09-13T05:03:26+00:00</time>
      </trkpt>
      <trkpt lat="45.38592" lon="2.246">
        <ele>625</ele>
        <time>2024-09-13T05:03:29+00:00</time>
      </trkpt>
      <trkpt lat="45.38584" lon="2.24634">
        <ele>625</ele>
        <time>2024-09-13T05:03:32+00:00</time>
      </trkpt>
      <trkpt lat="45.38546" lon="2.24649">
        <ele>623</ele>
        <time>2024-09-13T05:03:35+00:00</time>
      </trkpt>
      <trkpt lat="45.38514" lon="2.24641">
        <ele>625</ele>
        <time>2024-09-13T05:03:38+00:00</time>
      </trkpt>
      <trkpt lat="45.38479" lon="2.24619">
        <ele>627</ele>
        <time>2024-09-13T05:03:41+00:00</time>
      </trkpt>
      <trkpt lat="45.38458" lon="2.24616">
        <ele>626</ele>
        <time>2024-09-13T05:03:44+00:00</time>
      </trkpt>
      <trkpt lat="45.38435" lon="2.24605">
        <ele>626</ele>
        <time>2024-09-13T05:03:47+00:00</time>
      </trkpt>
      <trkpt lat="45.38407" lon="2.24621">
        <ele>626</ele>
        <time>2024-09-13T05:03:50+00:00</time>
      </trkpt>
      <trkpt lat="45.38374" lon="2.24602">
        <ele>626</ele>
        <time>2024-09-13T05:03:53+00:00</time>
      </trkpt>
      <trkpt lat="45.38354" lon="2.24654">
        <ele>626</ele>
        <time>2024-09-13T05:03:56+00:00</time>
      </trkpt>
      <trkpt lat="45.3834" lon="2.24689">
        <ele>626</ele>
        <time>2024-09-13T05:03:59+00:00</time>
      </trkpt>
      <trkpt lat="45.38293" lon="2.24713">
        <ele>621</ele>
        <time>2024-09-13T05:04:02+00:00</time>
      </trkpt>
      <trkpt lat="45.38264" lon="2.24715">
        <ele>621</ele>
        <time>2024-09-13T05:04:05+00:00</time>
      </trkpt>
      <trkpt lat="45.38241" lon="2.24723">
        <ele>621</ele>
        <time>2024-09-13T05:04:08+00:00</time>
      </trkpt>
      <trkpt lat="45.38227" lon="2.24749">
        <ele>626</ele>
        <time>2024-09-13T05:04:11+00:00</time>
      </trkpt>
      <trkpt lat="45.38202" lon="2.24777">
        <ele>635</ele>
        <time>2024-09-13T05:04:14+00:00</time>
      </trkpt>
      <trkpt lat="45.38178" lon="2.24778">
        <ele>637</ele>
        <time>2024-09-13T05:04:17+00:00</time>
      </trkpt>
      <trkpt lat="45.38148" lon="2.24795">
        <ele>641</ele>
        <time>2024-09-13T05:04:20+00:00</time>
      </trkpt>
      <trkpt lat="45.38134" lon="2.24828">
        <ele>647</ele>
        <time>2024-09-13T05:04:23+00:00</time>
      </trkpt>
      <trkpt lat="45.38127" lon="2.2489">
        <ele>650</ele>
        <time>2024-09-13T05:04:26+00:00</time>
      </trkpt>
      <trkpt lat="45.38118" lon="2.24943">
        <ele>652</ele>
        <time>2024-09-13T05:04:29+00:00</time>
      </trkpt>
      <trkpt lat="45.38107" lon="2.24987">
        <ele>652</ele>
        <time>2024-09-13T05:04:32+00:00</time>
      </trkpt>
      <trkpt lat="45.38102" lon="2.25024">
        <ele>654</ele>
        <time>2024-09-13T05:04:35+00:00</time>
      </trkpt>
      <trkpt lat="45.38096" lon="2.2505">
        <ele>661</ele>
        <time>2024-09-13T05:04:38+00:00</time>
      </trkpt>
      <trkpt lat="45.38095" lon="2.25083">
        <ele>659</ele>
        <time>2024-09-13T05:04:41+00:00</time>
      </trkpt>
      <trkpt lat="45.38097" lon="2.25138">
        <ele>662</ele>
        <time>2024-09-13T05:04:44+00:00</time>
      </trkpt>
      <trkpt lat="45.3806" lon="2.25118">
        <ele>666</ele>
        <time>2024-09-13T05:04:47+00:00</time>
      </trkpt>
      <trkpt lat="45.38023" lon="2.25099">
        <ele>675</ele>
        <time>2024-09-13T05:04:50+00:00</time>
      </trkpt>
      <trkpt lat="45.37986" lon="2.2508">
        <ele>674</ele>
        <time>2024-09-13T05:04:53+00:00</time>
      </trkpt>
      <trkpt lat="45.37949" lon="2.2506">
        <ele>673</ele>
        <time>2024-09-13T05:04:56+00:00</time>
      </trkpt>
      <trkpt lat="45.37882" lon="2.25025">
        <ele>674</ele>
        <time>2024-09-13T05:04:59+00:00</time>
      </trkpt>
      <trkpt lat="45.3788" lon="2.25054">
        <ele>675</ele>
        <time>2024-09-13T05:05:02+00:00</time>
      </trkpt>
      <trkpt lat="45.37897" lon="2.25086">
        <ele>674</ele>
        <time>2024-09-13T05:05:05+00:00</time>
      </trkpt>
      <trkpt lat="45.37919" lon="2.2513">
        <ele>678</ele>
        <time>2024-09-13T05:05:08+00:00</time>
      </trkpt>
      <trkpt lat="45.37864" lon="2.2513">
        <ele>676</ele>
        <time>2024-09-13T05:05:11+00:00</time>
      </trkpt>
      <trkpt lat="45.37836" lon="2.25118">
        <ele>676</ele>
        <time>2024-09-13T05:05:14+00:00</time>
      </trkpt>
      <trkpt lat="45.37793" lon="2.25099">
        <ele>676</ele>
        <time>2024-09-13T05:05:17+00:00</time>
      </trkpt>
      <trkpt lat="45.37761" lon="2.25082">
        <ele>663</ele>
        <time>2024-09-13T05:05:20+00:00</time>
      </trkpt>
      <trkpt lat="45.37727" lon="2.25053">
        <ele>658</ele>
        <time>2024-09-13T05:05:23+00:00</time>
      </trkpt>
      <trkpt lat="45.37707" lon="2.25028">
        <ele>661</ele>
        <time>2024-09-13T05:05:26+00:00</time>
      </trkpt>
      <trkpt lat="45.37685" lon="2.24999">
        <ele>665</ele>
        <time>2024-09-13T05:05:29+00:00</time>
      </trkpt>
      <trkpt lat="45.37666" lon="2.24983">
        <ele>669</ele>
        <time>2024-09-13T05:05:32+00:00</time>
      </trkpt>
      <trkpt lat="45.37639" lon="2.24974">
        <ele>669</ele>
        <time>2024-09-13T05:05:35+00:00</time>
      </trkpt>
      <trkpt lat="45.37614" lon="2.24968">
        <ele>658</ele>
        <time>2024-09-13T05:05:38+00:00</time>
      </trkpt>
      <trkpt lat="45.37584" lon="2.24961">
        <ele>651</ele>
        <time>2024-09-13T05:05:41+00:00</time>
      </trkpt>
      <trkpt lat="45.37555" lon="2.24948">
        <ele>647</ele>
        <time>2024-09-13T05:05:44+00:00</time>
      </trkpt>
      <trkpt lat="45.37542" lon="2.24979">
        <ele>644</ele>
        <time>2024-09-13T05:05:47+00:00</time>
      </trkpt>
      <trkpt lat="45.37534" lon="2.25009">
        <ele>644</ele>
        <time>2024-09-13T05:05:50+00:00</time>
      </trkpt>
      <trkpt lat="45.37533" lon="2.25044">
        <ele>645</ele>
        <time>2024-09-13T05:05:53+00:00</time>
      </trkpt>
      <trkpt lat="45.37519" lon="2.25077">
        <ele>651</ele>
        <time>2024-09-13T05:05:56+00:00</time>
      </trkpt>
      <trkpt lat="45.37501" lon="2.25122">
        <ele>651</ele>
        <time>2024-09-13T05:05:59+00:00</time>
      </trkpt>
      <trkpt lat="45.37497" lon="2.25158">
        <ele>651</ele>
        <time>2024-09-13T05:06:02+00:00</time>
      </trkpt>
      <trkpt lat="45.37492" lon="2.25198">
        <ele>649</ele>
        <time>2024-09-13T05:06:05+00:00</time>
      </trkpt>
      <trkpt lat="45.37493" lon="2.25241">
        <ele>647</ele>
        <time>2024-09-13T05:06:08+00:00</time>
      </trkpt>
      <trkpt lat="45.37494" lon="2.25313">
        <ele>643</ele>
        <time>2024-09-13T05:06:11+00:00</time>
      </trkpt>
      <trkpt lat="45.37485" lon="2.2528">
        <ele>643</ele>
        <time>2024-09-13T05:06:14+00:00</time>
      </trkpt>
      <trkpt lat="45.3747" lon="2.2525">
        <ele>643</ele>
        <time>2024-09-13T05:06:17+00:00</time>
      </trkpt>
      <trkpt lat="45.37445" lon="2.25219">
        <ele>643</ele>
        <time>2024-09-13T05:06:20+00:00</time>
      </trkpt>
      <trkpt lat="45.37401" lon="2.252">
        <ele>642</ele>
        <time>2024-09-13T05:06:23+00:00</time>
      </trkpt>
      <trkpt lat="45.37373" lon="2.25198">
        <ele>641</ele>
        <time>2024-09-13T05:06:26+00:00</time>
      </trkpt>
      <trkpt lat="45.37334" lon="2.25196">
        <ele>636</ele>
        <time>2024-09-13T05:06:29+00:00</time>
      </trkpt>
      <trkpt lat="45.37305" lon="2.25206">
        <ele>635</ele>
        <time>2024-09-13T05:06:32+00:00</time>
      </trkpt>
      <trkpt lat="45.37264" lon="2.25208">
        <ele>635</ele>
        <time>2024-09-13T05:06:35+00:00</time>
      </trkpt>
      <trkpt lat="45.37229" lon="2.25197">
        <ele>638</ele>
        <time>2024-09-13T05:06:38+00:00</time>
      </trkpt>
      <trkpt lat="45.37203" lon="2.25167">
        <ele>641</ele>
        <time>2024-09-13T05:06:41+00:00</time>
      </trkpt>
      <trkpt lat="45.3717" lon="2.25125">
        <ele>641</ele>
        <time>2024-09-13T05:06:44+00:00</time>
      </trkpt>
      <trkpt lat="45.37145" lon="2.25105">
        <ele>647</ele>
        <time>2024-09-13T05:06:47+00:00</time>
      </trkpt>
      <trkpt lat="45.37121" lon="2.25093">
        <ele>647</ele>
        <time>2024-09-13T05:06:50+00:00</time>
      </trkpt>
      <trkpt lat="45.37095" lon="2.25079">
        <ele>647</ele>
        <time>2024-09-13T05:06:53+00:00</time>
      </trkpt>
      <trkpt lat="45.37062" lon="2.25077">
        <ele>647</ele>
        <time>2024-09-13T05:06:56+00:00</time>
      </trkpt>
      <trkpt lat="45.37028" lon="2.25075">
        <ele>647</ele>
        <time>2024-09-13T05:06:59+00:00</time>
      </trkpt>
      <trkpt lat="45.36983" lon="2.25072">
        <ele>651</ele>
        <time>2024-09-13T05:07:02+00:00</time>
      </trkpt>
      <trkpt lat="45.36959" lon="2.25076">
        <ele>651</ele>
        <time>2024-09-13T05:07:05+00:00</time>
      </trkpt>
      <trkpt lat="45.36932" lon="2.25081">
        <ele>650</ele>
        <time>2024-09-13T05:07:08+00:00</time>
      </trkpt>
      <trkpt lat="45.36892" lon="2.25106">
        <ele>650</ele>
        <time>2024-09-13T05:07:11+00:00</time>
      </trkpt>
      <trkpt lat="45.36875" lon="2.25127">
        <ele>651</ele>
        <time>2024-09-13T05:07:14+00:00</time>
      </trkpt>
      <trkpt lat="45.36853" lon="2.2516">
        <ele>653</ele>
        <time>2024-09-13T05:07:17+00:00</time>
      </trkpt>
      <trkpt lat="45.3682" lon="2.25205">
        <ele>653</ele>
        <time>2024-09-13T05:07:20+00:00</time>
      </trkpt>
      <trkpt lat="45.36807" lon="2.25252">
        <ele>654</ele>
        <time>2024-09-13T05:07:23+00:00</time>
      </trkpt>
      <trkpt lat="45.36794" lon="2.25299">
        <ele>650</ele>
        <time>2024-09-13T05:07:26+00:00</time>
      </trkpt>
      <trkpt lat="45.36769" lon="2.25388">
        <ele>649</ele>
        <time>2024-09-13T05:07:29+00:00</time>
      </trkpt>
      <trkpt lat="45.36756" lon="2.25439">
        <ele>652</ele>
        <time>2024-09-13T05:07:32+00:00</time>
      </trkpt>
      <trkpt lat="45.36731" lon="2.25494">
        <ele>653</ele>
        <time>2024-09-13T05:07:35+00:00</time>
      </trkpt>
      <trkpt lat="45.36717" lon="2.2553">
        <ele>650</ele>
        <time>2024-09-13T05:07:38+00:00</time>
      </trkpt>
      <trkpt lat="45.36697" lon="2.25585">
        <ele>647</ele>
        <time>2024-09-13T05:07:41+00:00</time>
      </trkpt>
      <trkpt lat="45.36684" lon="2.25629">
        <ele>645</ele>
        <time>2024-09-13T05:07:44+00:00</time>
      </trkpt>
      <trkpt lat="45.36674" lon="2.25681">
        <ele>639</ele>
        <time>2024-09-13T05:07:47+00:00</time>
      </trkpt>
      <trkpt lat="45.36659" lon="2.25709">
        <ele>638</ele>
        <time>2024-09-13T05:07:50+00:00</time>
      </trkpt>
      <trkpt lat="45.36641" lon="2.2574">
        <ele>638</ele>
        <time>2024-09-13T05:07:53+00:00</time>
      </trkpt>
      <trkpt lat="45.36618" lon="2.25791">
        <ele>634</ele>
        <time>2024-09-13T05:07:56+00:00</time>
      </trkpt>
      <trkpt lat="45.36595" lon="2.25827">
        <ele>628</ele>
        <time>2024-09-13T05:07:59+00:00</time>
      </trkpt>
      <trkpt lat="45.36575" lon="2.25848">
        <ele>628</ele>
        <time>2024-09-13T05:08:02+00:00</time>
      </trkpt>
      <trkpt lat="45.36554" lon="2.2587">
        <ele>629</ele>
        <time>2024-09-13T05:08:05+00:00</time>
      </trkpt>
      <trkpt lat="45.36525" lon="2.25887">
        <ele>630</ele>
        <time>2024-09-13T05:08:08+00:00</time>
      </trkpt>
      <trkpt lat="45.36495" lon="2.25904">
        <ele>631</ele>
        <time>2024-09-13T05:08:11+00:00</time>
      </trkpt>
      <trkpt lat="45.36464" lon="2.25921">
        <ele>634</ele>
        <time>2024-09-13T05:08:14+00:00</time>
      </trkpt>
      <trkpt lat="45.36443" lon="2.25937">
        <ele>637</ele>
        <time>2024-09-13T05:08:17+00:00</time>
      </trkpt>
      <trkpt lat="45.3642" lon="2.25954">
        <ele>639</ele>
        <time>2024-09-13T05:08:20+00:00</time>
      </trkpt>
      <trkpt lat="45.36391" lon="2.25978">
        <ele>640</ele>
        <time>2024-09-13T05:08:23+00:00</time>
      </trkpt>
      <trkpt lat="45.36366" lon="2.26019">
        <ele>641</ele>
        <time>2024-09-13T05:08:26+00:00</time>
      </trkpt>
      <trkpt lat="45.36356" lon="2.26052">
        <ele>647</ele>
        <time>2024-09-13T05:08:29+00:00</time>
      </trkpt>
      <trkpt lat="45.36344" lon="2.2609">
        <ele>647</ele>
        <time>2024-09-13T05:08:32+00:00</time>
      </trkpt>
      <trkpt lat="45.36348" lon="2.26138">
        <ele>655</ele>
        <time>2024-09-13T05:08:35+00:00</time>
      </trkpt>
      <trkpt lat="45.36365" lon="2.26165">
        <ele>655</ele>
        <time>2024-09-13T05:08:38+00:00</time>
      </trkpt>
      <trkpt lat="45.36383" lon="2.26194">
        <ele>659</ele>
        <time>2024-09-13T05:08:41+00:00</time>
      </trkpt>
      <trkpt lat="45.36412" lon="2.26213">
        <ele>661</ele>
        <time>2024-09-13T05:08:44+00:00</time>
      </trkpt>
      <trkpt lat="45.36441" lon="2.26233">
        <ele>660</ele>
        <time>2024-09-13T05:08:47+00:00</time>
      </trkpt>
      <trkpt lat="45.36473" lon="2.26254">
        <ele>660</ele>
        <time>2024-09-13T05:08:50+00:00</time>
      </trkpt>
      <trkpt lat="45.36496" lon="2.26266">
        <ele>661</ele>
        <time>2024-09-13T05:08:53+00:00</time>
      </trkpt>
      <trkpt lat="45.3652" lon="2.26278">
        <ele>660</ele>
        <time>2024-09-13T05:08:56+00:00</time>
      </trkpt>
      <trkpt lat="45.36558" lon="2.26306">
        <ele>660</ele>
        <time>2024-09-13T05:08:59+00:00</time>
      </trkpt>
      <trkpt lat="45.36587" lon="2.26328">
        <ele>659</ele>
        <time>2024-09-13T05:09:02+00:00</time>
      </trkpt>
      <trkpt lat="45.36616" lon="2.26349">
        <ele>659</ele>
        <time>2024-09-13T05:09:05+00:00</time>
      </trkpt>
      <trkpt lat="45.36654" lon="2.26378">
        <ele>657</ele>
        <time>2024-09-13T05:09:08+00:00</time>
      </trkpt>
      <trkpt lat="45.36679" lon="2.26396">
        <ele>648</ele>
        <time>2024-09-13T05:09:11+00:00</time>
      </trkpt>
      <trkpt lat="45.36719" lon="2.26424">
        <ele>652</ele>
        <time>2024-09-13T05:09:14+00:00</time>
      </trkpt>
      <trkpt lat="45.3676" lon="2.26447">
        <ele>656</ele>
        <time>2024-09-13T05:09:17+00:00</time>
      </trkpt>
      <trkpt lat="45.36787" lon="2.2647">
        <ele>660</ele>
        <time>2024-09-13T05:09:20+00:00</time>
      </trkpt>
      <trkpt lat="45.36815" lon="2.26493">
        <ele>659</ele>
        <time>2024-09-13T05:09:23+00:00</time>
      </trkpt>
      <trkpt lat="45.36844" lon="2.26517">
        <ele>659</ele>
        <time>2024-09-13T05:09:26+00:00</time>
      </trkpt>
      <trkpt lat="45.36867" lon="2.26527">
        <ele>650</ele>
        <time>2024-09-13T05:09:29+00:00</time>
      </trkpt>
      <trkpt lat="45.3689" lon="2.26537">
        <ele>643</ele>
        <time>2024-09-13T05:09:32+00:00</time>
      </trkpt>
      <trkpt lat="45.36924" lon="2.26564">
        <ele>643</ele>
        <time>2024-09-13T05:09:35+00:00</time>
      </trkpt>
      <trkpt lat="45.36946" lon="2.26578">
        <ele>643</ele>
        <time>2024-09-13T05:09:38+00:00</time>
      </trkpt>
      <trkpt lat="45.36971" lon="2.26592">
        <ele>643</ele>
        <time>2024-09-13T05:09:41+00:00</time>
      </trkpt>
      <trkpt lat="45.36999" lon="2.26578">
        <ele>642</ele>
        <time>2024-09-13T05:09:44+00:00</time>
      </trkpt>
      <trkpt lat="45.37007" lon="2.26534">
        <ele>642</ele>
        <time>2024-09-13T05:09:47+00:00</time>
      </trkpt>
      <trkpt lat="45.37015" lon="2.2649">
        <ele>637</ele>
        <time>2024-09-13T05:09:50+00:00</time>
      </trkpt>
      <trkpt lat="45.37024" lon="2.26443">
        <ele>633</ele>
        <time>2024-09-13T05:09:53+00:00</time>
      </trkpt>
      <trkpt lat="45.37043" lon="2.26423">
        <ele>629</ele>
        <time>2024-09-13T05:09:56+00:00</time>
      </trkpt>
      <trkpt lat="45.37066" lon="2.26419">
        <ele>630</ele>
        <time>2024-09-13T05:09:59+00:00</time>
      </trkpt>
      <trkpt lat="45.3709" lon="2.26416">
        <ele>631</ele>
        <time>2024-09-13T05:10:02+00:00</time>
      </trkpt>
      <trkpt lat="45.37135" lon="2.26418">
        <ele>637</ele>
        <time>2024-09-13T05:10:05+00:00</time>
      </trkpt>
      <trkpt lat="45.37157" lon="2.26424">
        <ele>637</ele>
        <time>2024-09-13T05:10:08+00:00</time>
      </trkpt>
      <trkpt lat="45.37183" lon="2.26448">
        <ele>642</ele>
        <time>2024-09-13T05:10:11+00:00</time>
      </trkpt>
      <trkpt lat="45.37206" lon="2.2649">
        <ele>641</ele>
        <time>2024-09-13T05:10:14+00:00</time>
      </trkpt>
      <trkpt lat="45.37229" lon="2.26533">
        <ele>640</ele>
        <time>2024-09-13T05:10:17+00:00</time>
      </trkpt>
      <trkpt lat="45.37253" lon="2.26575">
        <ele>635</ele>
        <time>2024-09-13T05:10:20+00:00</time>
      </trkpt>
      <trkpt lat="45.37299" lon="2.26658">
        <ele>628</ele>
        <time>2024-09-13T05:10:23+00:00</time>
      </trkpt>
      <trkpt lat="45.373" lon="2.26708">
        <ele>618</ele>
        <time>2024-09-13T05:10:26+00:00</time>
      </trkpt>
      <trkpt lat="45.37286" lon="2.26748">
        <ele>613</ele>
        <time>2024-09-13T05:10:29+00:00</time>
      </trkpt>
      <trkpt lat="45.37257" lon="2.26827">
        <ele>612</ele>
        <time>2024-09-13T05:10:32+00:00</time>
      </trkpt>
      <trkpt lat="45.37257" lon="2.2688">
        <ele>611</ele>
        <time>2024-09-13T05:10:35+00:00</time>
      </trkpt>
      <trkpt lat="45.37282" lon="2.2691">
        <ele>608</ele>
        <time>2024-09-13T05:10:38+00:00</time>
      </trkpt>
      <trkpt lat="45.37306" lon="2.2694">
        <ele>605</ele>
        <time>2024-09-13T05:10:41+00:00</time>
      </trkpt>
      <trkpt lat="45.37334" lon="2.26974">
        <ele>603</ele>
        <time>2024-09-13T05:10:44+00:00</time>
      </trkpt>
      <trkpt lat="45.37355" lon="2.26993">
        <ele>602</ele>
        <time>2024-09-13T05:10:47+00:00</time>
      </trkpt>
      <trkpt lat="45.37376" lon="2.27012">
        <ele>602</ele>
        <time>2024-09-13T05:10:50+00:00</time>
      </trkpt>
      <trkpt lat="45.3739" lon="2.27041">
        <ele>602</ele>
        <time>2024-09-13T05:10:53+00:00</time>
      </trkpt>
      <trkpt lat="45.37407" lon="2.27073">
        <ele>604</ele>
        <time>2024-09-13T05:10:56+00:00</time>
      </trkpt>
      <trkpt lat="45.37427" lon="2.27124">
        <ele>602</ele>
        <time>2024-09-13T05:10:59+00:00</time>
      </trkpt>
      <trkpt lat="45.3745" lon="2.27107">
        <ele>600</ele>
        <time>2024-09-13T05:11:02+00:00</time>
      </trkpt>
      <trkpt lat="45.37492" lon="2.27087">
        <ele>597</ele>
        <time>2024-09-13T05:11:05+00:00</time>
      </trkpt>
      <trkpt lat="45.37515" lon="2.27098">
        <ele>597</ele>
        <time>2024-09-13T05:11:08+00:00</time>
      </trkpt>
      <trkpt lat="45.37501" lon="2.27129">
        <ele>599</ele>
        <time>2024-09-13T05:11:11+00:00</time>
      </trkpt>
      <trkpt lat="45.37502" lon="2.27173">
        <ele>603</ele>
        <time>2024-09-13T05:11:14+00:00</time>
      </trkpt>
      <trkpt lat="45.37523" lon="2.27228">
        <ele>611</ele>
        <time>2024-09-13T05:11:17+00:00</time>
      </trkpt>
      <trkpt lat="45.37527" lon="2.27254">
        <ele>608</ele>
        <time>2024-09-13T05:11:20+00:00</time>
      </trkpt>
      <trkpt lat="45.37517" lon="2.27308">
        <ele>608</ele>
        <time>2024-09-13T05:11:23+00:00</time>
      </trkpt>
      <trkpt lat="45.37514" lon="2.27336">
        <ele>608</ele>
        <time>2024-09-13T05:11:26+00:00</time>
      </trkpt>
      <trkpt lat="45.37519" lon="2.27363">
        <ele>610</ele>
        <time>2024-09-13T05:11:29+00:00</time>
      </trkpt>
      <trkpt lat="45.37542" lon="2.27393">
        <ele>616</ele>
        <time>2024-09-13T05:11:32+00:00</time>
      </trkpt>
      <trkpt lat="45.37571" lon="2.27399">
        <ele>616</ele>
        <time>2024-09-13T05:11:35+00:00</time>
      </trkpt>
      <trkpt lat="45.37602" lon="2.27391">
        <ele>614</ele>
        <time>2024-09-13T05:11:38+00:00</time>
      </trkpt>
      <trkpt lat="45.37631" lon="2.27376">
        <ele>613</ele>
        <time>2024-09-13T05:11:41+00:00</time>
      </trkpt>
      <trkpt lat="45.37631" lon="2.27427">
        <ele>613</ele>
        <time>2024-09-13T05:11:44+00:00</time>
      </trkpt>
      <trkpt lat="45.37631" lon="2.2747">
        <ele>609</ele>
        <time>2024-09-13T05:11:47+00:00</time>
      </trkpt>
      <trkpt lat="45.3763" lon="2.27546">
        <ele>608</ele>
        <time>2024-09-13T05:11:50+00:00</time>
      </trkpt>
      <trkpt lat="45.3764" lon="2.27605">
        <ele>608</ele>
        <time>2024-09-13T05:11:53+00:00</time>
      </trkpt>
      <trkpt lat="45.37661" lon="2.27685">
        <ele>606</ele>
        <time>2024-09-13T05:11:56+00:00</time>
      </trkpt>
      <trkpt lat="45.3767" lon="2.2773">
        <ele>605</ele>
        <time>2024-09-13T05:11:59+00:00</time>
      </trkpt>
      <trkpt lat="45.37678" lon="2.27775">
        <ele>606</ele>
        <time>2024-09-13T05:12:02+00:00</time>
      </trkpt>
      <trkpt lat="45.37688" lon="2.27828">
        <ele>604</ele>
        <time>2024-09-13T05:12:05+00:00</time>
      </trkpt>
      <trkpt lat="45.37712" lon="2.27847">
        <ele>604</ele>
        <time>2024-09-13T05:12:08+00:00</time>
      </trkpt>
      <trkpt lat="45.37733" lon="2.27853">
        <ele>604</ele>
        <time>2024-09-13T05:12:11+00:00</time>
      </trkpt>
      <trkpt lat="45.37772" lon="2.27827">
        <ele>600</ele>
        <time>2024-09-13T05:12:14+00:00</time>
      </trkpt>
      <trkpt lat="45.37789" lon="2.27889">
        <ele>599</ele>
        <time>2024-09-13T05:12:17+00:00</time>
      </trkpt>
      <trkpt lat="45.3781" lon="2.27903">
        <ele>599</ele>
        <time>2024-09-13T05:12:20+00:00</time>
      </trkpt>
      <trkpt lat="45.37846" lon="2.2789">
        <ele>596</ele>
        <time>2024-09-13T05:12:23+00:00</time>
      </trkpt>
      <trkpt lat="45.37889" lon="2.27976">
        <ele>595</ele>
        <time>2024-09-13T05:12:26+00:00</time>
      </trkpt>
      <trkpt lat="45.37905" lon="2.28012">
        <ele>595</ele>
        <time>2024-09-13T05:12:29+00:00</time>
      </trkpt>
      <trkpt lat="45.37934" lon="2.28078">
        <ele>603</ele>
        <time>2024-09-13T05:12:32+00:00</time>
      </trkpt>
      <trkpt lat="45.37955" lon="2.28122">
        <ele>608</ele>
        <time>2024-09-13T05:12:35+00:00</time>
      </trkpt>
      <trkpt lat="45.37963" lon="2.28149">
        <ele>612</ele>
        <time>2024-09-13T05:12:38+00:00</time>
      </trkpt>
      <trkpt lat="45.3797" lon="2.28193">
        <ele>621</ele>
        <time>2024-09-13T05:12:41+00:00</time>
      </trkpt>
      <trkpt lat="45.37978" lon="2.28238">
        <ele>624</ele>
        <time>2024-09-13T05:12:44+00:00</time>
      </trkpt>
      <trkpt lat="45.37986" lon="2.28288">
        <ele>626</ele>
        <time>2024-09-13T05:12:47+00:00</time>
      </trkpt>
      <trkpt lat="45.37995" lon="2.2833">
        <ele>628</ele>
        <time>2024-09-13T05:12:50+00:00</time>
      </trkpt>
      <trkpt lat="45.38005" lon="2.28362">
        <ele>632</ele>
        <time>2024-09-13T05:12:53+00:00</time>
      </trkpt>
      <trkpt lat="45.38028" lon="2.28413">
        <ele>633</ele>
        <time>2024-09-13T05:12:56+00:00</time>
      </trkpt>
      <trkpt lat="45.38051" lon="2.28462">
        <ele>632</ele>
        <time>2024-09-13T05:12:59+00:00</time>
      </trkpt>
      <trkpt lat="45.38065" lon="2.28497">
        <ele>632</ele>
        <time>2024-09-13T05:13:02+00:00</time>
      </trkpt>
      <trkpt lat="45.3808" lon="2.28546">
        <ele>633</ele>
        <time>2024-09-13T05:13:05+00:00</time>
      </trkpt>
      <trkpt lat="45.38096" lon="2.28587">
        <ele>638</ele>
        <time>2024-09-13T05:13:08+00:00</time>
      </trkpt>
      <trkpt lat="45.38116" lon="2.28628">
        <ele>643</ele>
        <time>2024-09-13T05:13:11+00:00</time>
      </trkpt>
      <trkpt lat="45.38141" lon="2.28669">
        <ele>643</ele>
        <time>2024-09-13T05:13:14+00:00</time>
      </trkpt>
      <trkpt lat="45.38165" lon="2.28692">
        <ele>638</ele>
        <time>2024-09-13T05:13:17+00:00</time>
      </trkpt>
      <trkpt lat="45.38203" lon="2.28727">
        <ele>638</ele>
        <time>2024-09-13T05:13:20+00:00</time>
      </trkpt>
      <trkpt lat="45.3819" lon="2.28765">
        <ele>636</ele>
        <time>2024-09-13T05:13:23+00:00</time>
      </trkpt>
      <trkpt lat="45.38166" lon="2.28829">
        <ele>636</ele>
        <time>2024-09-13T05:13:26+00:00</time>
      </trkpt>
      <trkpt lat="45.38178" lon="2.28857">
        <ele>636</ele>
        <time>2024-09-13T05:13:29+00:00</time>
      </trkpt>
      <trkpt lat="45.38197" lon="2.28911">
        <ele>637</ele>
        <time>2024-09-13T05:13:32+00:00</time>
      </trkpt>
      <trkpt lat="45.3819" lon="2.28947">
        <ele>638</ele>
        <time>2024-09-13T05:13:35+00:00</time>
      </trkpt>
      <trkpt lat="45.38176" lon="2.28978">
        <ele>638</ele>
        <time>2024-09-13T05:13:38+00:00</time>
      </trkpt>
      <trkpt lat="45.38161" lon="2.29013">
        <ele>638</ele>
        <time>2024-09-13T05:13:41+00:00</time>
      </trkpt>
      <trkpt lat="45.38164" lon="2.29065">
        <ele>635</ele>
        <time>2024-09-13T05:13:44+00:00</time>
      </trkpt>
      <trkpt lat="45.38191" lon="2.29115">
        <ele>632</ele>
        <time>2024-09-13T05:13:47+00:00</time>
      </trkpt>
      <trkpt lat="45.38193" lon="2.29153">
        <ele>626</ele>
        <time>2024-09-13T05:13:50+00:00</time>
      </trkpt>
      <trkpt lat="45.38185" lon="2.29189">
        <ele>625</ele>
        <time>2024-09-13T05:13:53+00:00</time>
      </trkpt>
      <trkpt lat="45.38192" lon="2.29226">
        <ele>622</ele>
        <time>2024-09-13T05:13:56+00:00</time>
      </trkpt>
      <trkpt lat="45.38203" lon="2.29196">
        <ele>621</ele>
        <time>2024-09-13T05:13:59+00:00</time>
      </trkpt>
      <trkpt lat="45.38247" lon="2.29167">
        <ele>621</ele>
        <time>2024-09-13T05:14:02+00:00</time>
      </trkpt>
      <trkpt lat="45.38268" lon="2.29148">
        <ele>620</ele>
        <time>2024-09-13T05:14:05+00:00</time>
      </trkpt>
      <trkpt lat="45.38291" lon="2.29126">
        <ele>613</ele>
        <time>2024-09-13T05:14:08+00:00</time>
      </trkpt>
      <trkpt lat="45.38312" lon="2.29113">
        <ele>608</ele>
        <time>2024-09-13T05:14:11+00:00</time>
      </trkpt>
      <trkpt lat="45.38335" lon="2.29107">
        <ele>606</ele>
        <time>2024-09-13T05:14:14+00:00</time>
      </trkpt>
      <trkpt lat="45.38361" lon="2.29108">
        <ele>606</ele>
        <time>2024-09-13T05:14:17+00:00</time>
      </trkpt>
      <trkpt lat="45.38396" lon="2.29116">
        <ele>605</ele>
        <time>2024-09-13T05:14:20+00:00</time>
      </trkpt>
      <trkpt lat="45.38432" lon="2.29124">
        <ele>605</ele>
        <time>2024-09-13T05:14:23+00:00</time>
      </trkpt>
      <trkpt lat="45.38467" lon="2.29132">
        <ele>609</ele>
        <time>2024-09-13T05:14:26+00:00</time>
      </trkpt>
      <trkpt lat="45.38508" lon="2.29141">
        <ele>612</ele>
        <time>2024-09-13T05:14:29+00:00</time>
      </trkpt>
      <trkpt lat="45.38504" lon="2.29172">
        <ele>613</ele>
        <time>2024-09-13T05:14:32+00:00</time>
      </trkpt>
    </trkseg>
  </trk>
</gpx>